createdAt,value
2019-02-09T00:14:31.796Z,5.2
2019-02-09T00:29:46.235Z,5.1
2019-02-09T00:44:57.315Z,5.2
2019-02-09T01:00:09.131Z,5.3
2019-02-09T01:15:17.931Z,5.3
2019-02-09T01:30:33.543Z,5.1
2019-02-09T01:45:45.911Z,4.9
2019-02-09T02:00:58.161Z,4.8
2019-02-09T02:16:01.037Z,4.8
2019-02-09T02:31:22.447Z,4.7
2019-02-09T02:46:34.612Z,4.9
2019-02-09T03:01:46.866Z,5
2019-02-09T03:16:59.124Z,4.9
2019-02-09T03:32:10.921Z,4.6
2019-02-09T03:47:23.406Z,4.4
2019-02-09T04:02:35.434Z,4.2
2019-02-09T04:17:49.150Z,4
2019-02-09T04:32:51.843Z,3.9
2019-02-09T04:48:11.232Z,4
2019-02-09T05:03:23.134Z,4.2
2019-02-09T05:18:35.261Z,4.3
2019-02-09T05:33:47.267Z,4.6
2019-02-09T05:48:59.458Z,4.7
2019-02-09T06:04:11.659Z,4.9
2019-02-09T06:19:23.921Z,4.9
2019-02-09T06:34:36.149Z,4.9
2019-02-09T06:49:42.577Z,5.1
2019-02-09T07:05:00.766Z,5.3
2019-02-09T07:20:13.152Z,5.5
2019-02-09T07:35:25.613Z,5.7
2019-02-09T07:50:38.231Z,6.1
2019-02-09T08:05:51.081Z,7.1
2019-02-09T08:21:04.347Z,7.6
2019-02-09T08:36:20.413Z,7.9
2019-02-09T08:51:31.122Z,8.5
2019-02-09T09:06:40.015Z,9
2019-02-09T09:21:58.618Z,9.2
2019-02-09T09:37:12.459Z,9.4
2019-02-09T09:52:26.555Z,10.1
2019-02-09T10:07:29.117Z,10.2
2019-02-09T10:22:54.928Z,10.4
2019-02-09T10:38:09.335Z,10.5
2019-02-09T10:53:23.962Z,10.6
2019-02-09T11:08:39.403Z,10.9
2019-02-09T11:23:46.731Z,11.1
2019-02-09T11:39:09.689Z,11
2019-02-09T11:54:24.549Z,11.2
2019-02-09T12:09:39.533Z,11.6
2019-02-09T12:24:54.516Z,11.7
2019-02-09T12:40:05.679Z,11.9
2019-02-09T12:55:24.502Z,12.2
2019-02-09T13:10:40.243Z,12.3
2019-02-09T13:25:55.311Z,12.2
2019-02-09T13:40:57.171Z,12.3
2019-02-09T13:56:25.514Z,12
2019-02-09T14:11:41.760Z,11.8
2019-02-09T14:26:57.054Z,11.7
2019-02-09T14:42:12.681Z,11.5
2019-02-09T14:57:16.099Z,11.1
2019-02-09T15:12:42.624Z,11
2019-02-09T15:27:58.007Z,10.8
2019-02-09T15:43:12.993Z,10.6
2019-02-09T15:58:27.110Z,10
2019-02-09T16:13:33.185Z,9.5
2019-02-09T16:28:55.149Z,9.2
2019-02-09T16:44:08.689Z,9
2019-02-09T16:59:22.272Z,8.8
2019-02-09T17:14:35.894Z,8.7
2019-02-09T17:29:47.401Z,8.8
2019-02-09T17:45:03.225Z,8.8
2019-02-09T18:00:16.916Z,8.9
2019-02-09T18:15:30.635Z,8.9
2019-02-09T18:30:35.043Z,8.7
2019-02-09T18:45:58.063Z,8.6
2019-02-09T19:01:11.428Z,8.5
2019-02-09T19:16:25.010Z,8.6
2019-02-09T19:31:38.564Z,8.6
2019-02-09T19:46:49.583Z,8.6
2019-02-09T20:02:06.711Z,8.6
2019-02-09T20:17:19.463Z,8.6
2019-02-09T20:32:33.061Z,8.5
2019-02-09T20:47:36.621Z,8.4
2019-02-09T21:03:00.132Z,8.4
2019-02-09T21:18:14.169Z,8.3
2019-02-09T21:33:27.171Z,8.2
2019-02-09T21:48:40.618Z,8.3
2019-02-09T22:03:49.937Z,8.1
2019-02-09T22:19:07.380Z,8
2019-02-09T22:34:20.695Z,7.9
2019-02-09T22:49:33.986Z,7.8
2019-02-09T23:04:36.430Z,7.6
2019-02-09T23:20:00.430Z,7.5
2019-02-09T23:35:13.655Z,7.6
2019-02-09T23:50:26.956Z,7.6
